createdAt,value
2023-02-19T00:08:52.983Z,89.6
2023-02-19T00:24:02.517Z,89.3
2023-02-19T00:39:14.137Z,89.6
2023-02-19T00:54:24.138Z,89.9
2023-02-19T01:09:33.428Z,90.1
2023-02-19T01:24:42.750Z,90.4
2023-02-19T01:39:52.213Z,90.9
2023-02-19T01:55:01.837Z,91.5
2023-02-19T02:10:11.445Z,91.7
2023-02-19T02:25:21.965Z,91.8
2023-02-19T02:40:31.532Z,91.6
2023-02-19T02:55:40.892Z,91.5
2023-02-19T03:10:51.344Z,91.5
2023-02-19T03:26:01.159Z,92.6
2023-02-19T03:41:11.960Z,93.1
2023-02-19T03:56:22.162Z,93.4
2023-02-19T04:11:32.002Z,93.5
2023-02-19T04:26:41.225Z,93.2
2023-02-19T04:41:50.322Z,93
2023-02-19T04:57:00.055Z,93.1
2023-02-19T05:12:08.792Z,93
2023-02-19T05:27:18.342Z,93.2
2023-02-19T05:42:27.426Z,93.3
2023-02-19T06:00:58.964Z,91.3
2023-02-19T06:16:10.247Z,94.6
2023-02-19T06:31:20.129Z,94.6
2023-02-19T06:46:29.832Z,94.4
2023-02-19T07:01:39.038Z,94.4
2023-02-19T07:16:48.581Z,94.2
2023-02-19T07:31:58.163Z,93.9
2023-02-19T07:47:07.574Z,93.6
2023-02-19T08:02:17.326Z,93.2
2023-02-19T08:17:27.538Z,93.1
2023-02-19T08:32:37.026Z,92.9
2023-02-19T08:47:46.356Z,92.6
2023-02-19T09:02:55.987Z,92
2023-02-19T09:18:05.498Z,92.2
2023-02-19T09:33:14.904Z,92
2023-02-19T09:48:24.573Z,91.8
2023-02-19T10:03:33.881Z,91.6
2023-02-19T10:18:43.467Z,91.2
2023-02-19T10:33:52.862Z,91
2023-02-19T10:49:03.815Z,90.7
2023-02-19T11:04:15.764Z,90.6
2023-02-19T11:19:26.540Z,90.6
2023-02-19T11:34:37.146Z,90.5
2023-02-19T11:49:46.676Z,90.4
2023-02-19T12:04:56.876Z,89.8
2023-02-19T12:20:07.513Z,87.8
2023-02-19T12:35:18.144Z,86.1
2023-02-19T12:50:27.882Z,86.3
2023-02-19T13:05:37.294Z,86
2023-02-19T13:20:46.825Z,85.2
2023-02-19T13:35:56.211Z,84.5
2023-02-19T13:51:10.683Z,78
2023-02-19T14:06:18.816Z,83.5
2023-02-19T14:21:26.736Z,86.5
2023-02-19T14:36:35.747Z,86.9
2023-02-19T14:51:44.998Z,86.8
2023-02-19T15:06:54.260Z,86.8
2023-02-19T15:22:03.318Z,86.7
2023-02-19T15:37:12.514Z,86.9
2023-02-19T15:52:21.214Z,87.3
2023-02-19T16:07:31.480Z,87.3
2023-02-19T16:22:40.894Z,87.3
2023-02-19T16:37:50.031Z,87.6
2023-02-19T16:52:59.788Z,87.8
2023-02-19T17:08:09.210Z,87.7
2023-02-19T17:23:18.518Z,87.8
2023-02-19T17:38:27.888Z,87.9
2023-02-19T17:53:37.118Z,87.7
2023-02-19T18:08:46.357Z,87.8
2023-02-19T18:23:55.620Z,87.7
2023-02-19T18:39:05.440Z,87.6
2023-02-19T18:54:14.711Z,87.6
2023-02-19T19:09:24.150Z,87.5
2023-02-19T19:24:33.062Z,87.4
2023-02-19T19:39:43.025Z,87.4
2023-02-19T19:54:51.983Z,87.2
2023-02-19T20:10:01.425Z,87.2
2023-02-19T20:25:11.012Z,87.2
2023-02-19T20:40:20.159Z,87.2
2023-02-19T20:55:29.811Z,87.1
2023-02-19T21:10:38.960Z,87
2023-02-19T21:25:49.295Z,86.8
2023-02-19T21:40:58.873Z,86.8
2023-02-19T21:56:08.065Z,86.7
2023-02-19T22:11:51.385Z,85.9
2023-02-19T22:27:01.598Z,86.7
2023-02-19T22:42:10.848Z,86.8
2023-02-19T22:57:20.285Z,86.8
2023-02-19T23:12:29.322Z,86.8
2023-02-19T23:27:38.450Z,86.7
2023-02-19T23:42:47.796Z,86.6
2023-02-19T23:57:57.441Z,87.2
